Time;durP1;ratioP1;P1;durP2;ratioP2;P2;SDS_P1;SDS_P2;PMS_P1;PMS_P2;Temp;Humidity;BMP_temperature;BMP_pressure;BME280_temperature;BME280_humidity;BME280_pressure;Samples;Min_cycle;Max_cycle;Signal;HPM_P1;HPM_P2
2023/06/15 00:01:52;;;;;;;6.73;4.20;;;12.50;1.00;;;;;;5088343;28;20395;-66
2023/06/15 00:04:18;;;;;;;4.60;4.20;;;12.50;1.00;;;;;;5090523;28;20288;-69
2023/06/15 00:06:44;;;;;;;6.37;4.80;;;12.50;1.00;;;;;;5076432;28;20470;-70
2023/06/15 00:09:10;;;;;;;5.23;4.67;;;12.50;1.00;;;;;;5073159;28;20716;-68
2023/06/15 00:11:35;;;;;;;4.90;4.50;;;12.50;1.00;;;;;;5084175;28;20386;-66
2023/06/15 00:14:01;;;;;;;6.10;4.10;;;12.50;1.00;;;;;;5093404;28;20546;-70
2023/06/15 00:16:31;;;;;;;5.87;4.57;;;12.50;1.00;;;;;;5092479;28;20161;-66
2023/06/15 00:19:01;;;;;;;9.60;4.30;;;12.50;1.00;;;;;;5092789;28;20790;-69
2023/06/15 00:21:30;;;;;;;5.10;4.23;;;12.50;1.00;;;;;;5092274;28;20374;-67
2023/06/15 00:23:56;;;;;;;8.13;4.30;;;12.50;1.00;;;;;;5079599;28;20407;-69
2023/06/15 00:26:22;;;;;;;9.93;5.10;;;12.40;1.00;;;;;;5072851;28;20391;-66
2023/06/15 00:28:47;;;;;;;4.50;3.80;;;12.40;1.00;;;;;;5072814;28;20263;-68
2023/06/15 00:31:13;;;;;;;5.07;4.67;;;12.40;1.00;;;;;;5072033;28;20538;-66
2023/06/15 00:33:39;;;;;;;5.10;4.60;;;12.40;1.00;;;;;;5072712;28;20240;-66
2023/06/15 00:36:07;;;;;;;6.50;4.80;;;12.40;1.00;;;;;;5090208;28;20177;-69
2023/06/15 00:38:33;;;;;;;4.60;4.23;;;12.40;1.00;;;;;;5092924;28;20193;-66
2023/06/15 00:40:59;;;;;;;4.60;4.00;;;12.40;1.00;;;;;;5091925;28;20386;-66
2023/06/15 00:43:25;;;;;;;6.80;4.47;;;12.40;1.00;;;;;;5092833;28;20985;-69
2023/06/15 00:45:50;;;;;;;9.30;4.90;;;12.30;1.00;;;;;;5092860;28;20177;-68
2023/06/15 00:48:16;;;;;;;5.13;4.73;;;12.30;1.00;;;;;;5092819;28;20634;-66
2023/06/15 00:50:42;;;;;;;4.60;4.27;;;12.20;1.00;;;;;;5091802;28;20166;-69
2023/06/15 00:53:10;;;;;;;3.97;3.70;;;12.20;1.00;;;;;;5091897;28;20209;-68
2023/06/15 00:55:37;;;;;;;5.00;4.30;;;12.20;1.00;;;;;;5092868;28;20389;-66
2023/06/15 00:58:04;;;;;;;5.93;4.00;;;12.10;1.00;;;;;;5092762;28;20382;-67
2023/06/15 01:00:36;;;;;;;6.03;5.17;;;12.20;1.00;;;;;;5091721;28;20398;-69
2023/06/15 01:03:04;;;;;;;6.90;4.57;;;12.10;1.00;;;;;;5092575;28;20402;-67
2023/06/15 01:05:34;;;;;;;5.43;4.63;;;12.20;1.00;;;;;;5092568;28;20420;-66
2023/06/15 01:08:04;;;;;;;5.60;4.40;;;12.20;1.00;;;;;;5090677;28;20428;-69
2023/06/15 01:10:31;;;;;;;6.53;4.50;;;12.20;1.00;;;;;;5091780;28;20485;-69
2023/06/15 01:13:00;;;;;;;13.13;4.70;;;12.20;1.00;;;;;;5081465;28;20431;-67
2023/06/15 01:15:26;;;;;;;4.43;4.03;;;12.20;1.00;;;;;;5072261;28;20383;-67
2023/06/15 01:17:58;;;;;;;5.60;5.10;;;12.20;1.00;;;;;;5077242;28;20414;-69
2023/06/15 01:20:48;;;;;;;4.33;4.03;;;12.20;1.00;;;;;;5091738;28;20392;-69
2023/06/15 01:23:59;;;;;;;5.13;4.63;;;12.20;1.00;;;;;;5092488;28;20444;-67
2023/06/15 01:26:28;;;;;;;5.23;4.50;;;12.10;1.00;;;;;;5073701;28;20932;-66
2023/06/15 01:28:56;;;;;;;5.90;3.83;;;12.10;1.00;;;;;;5092583;28;20465;-68
2023/06/15 01:31:23;;;;;;;4.87;4.40;;;12.10;1.00;;;;;;5075455;28;20387;-69
2023/06/15 01:33:50;;;;;;;4.60;4.00;;;12.10;1.00;;;;;;5075181;28;20403;-66
2023/06/15 01:36:18;;;;;;;6.97;4.57;;;12.10;1.00;;;;;;5075930;28;20379;-66
2023/06/15 01:38:57;;;;;;;6.47;4.20;;;12.10;1.00;;;;;;5058054;28;20442;-68
2023/06/15 01:41:25;;;;;;;5.60;4.80;;;12.10;1.00;;;;;;5067149;28;20446;-69
2023/06/15 01:43:52;;;;;;;4.83;4.43;;;12.00;1.00;;;;;;5091547;28;20459;-68
2023/06/15 01:46:19;;;;;;;5.70;5.23;;;12.00;1.00;;;;;;5095490;28;20403;-66
2023/06/15 01:48:45;;;;;;;7.03;5.50;;;12.00;1.00;;;;;;5095977;28;20432;-67
2023/06/15 01:51:11;;;;;;;4.73;4.33;;;12.00;1.00;;;;;;5076855;28;20411;-68
2023/06/15 01:53:39;;;;;;;5.80;3.97;;;12.00;1.00;;;;;;5095449;28;20225;-66
2023/06/15 01:56:05;;;;;;;6.53;4.00;;;12.00;1.00;;;;;;5095654;28;20378;-70
2023/06/15 01:58:30;;;;;;;4.20;3.90;;;11.90;1.00;;;;;;5095879;28;20505;-68
2023/06/15 02:00:56;;;;;;;5.00;4.60;;;11.90;1.00;;;;;;5094375;28;20177;-66
2023/06/15 02:03:22;;;;;;;4.60;4.07;;;11.90;1.00;;;;;;5095128;28;20198;-68
2023/06/15 02:05:48;;;;;;;4.07;3.87;;;11.90;1.00;;;;;;5095514;28;20166;-69
2023/06/15 02:08:14;;;;;;;5.77;4.60;;;11.90;1.00;;;;;;5095547;28;20177;-69
2023/06/15 02:10:40;;;;;;;4.30;3.90;;;11.90;1.00;;;;;;5094855;28;20736;-69
2023/06/15 02:13:08;;;;;;;6.03;4.20;;;11.90;1.00;;;;;;5094007;28;20233;-69
2023/06/15 02:15:34;;;;;;;5.20;4.07;;;11.80;1.00;;;;;;5095395;28;20265;-69
2023/06/15 02:18:03;;;;;;;4.37;4.03;;;11.70;1.00;;;;;;5081510;28;20526;-66
2023/06/15 02:20:29;;;;;;;4.33;4.03;;;11.70;1.00;;;;;;5094523;28;20405;-66
2023/06/15 02:22:57;;;;;;;5.03;4.63;;;11.60;1.00;;;;;;5076162;28;20474;-70
2023/06/15 02:25:24;;;;;;;4.43;4.10;;;11.60;1.00;;;;;;5094189;28;20839;-67
2023/06/15 02:27:51;;;;;;;5.17;4.67;;;11.60;1.00;;;;;;5093757;28;20420;-69
2023/06/15 02:30:17;;;;;;;4.80;4.40;;;11.60;1.00;;;;;;5092285;28;20417;-66
2023/06/15 02:32:43;;;;;;;4.13;3.73;;;11.60;1.00;;;;;;5075583;28;20399;-70
2023/06/15 02:35:11;;;;;;;5.53;4.03;;;11.70;1.00;;;;;;5094000;28;20768;-66
2023/06/15 02:37:38;;;;;;;4.93;4.53;;;11.60;1.00;;;;;;5094879;28;20257;-68
2023/06/15 02:40:05;;;;;;;4.17;3.77;;;11.60;1.00;;;;;;5084858;28;20460;-73
2023/06/15 02:42:31;;;;;;;4.27;3.97;;;11.50;1.00;;;;;;5096583;28;20393;-69
2023/06/15 02:44:57;;;;;;;5.80;4.13;;;11.50;1.00;;;;;;5113887;28;20453;-69
2023/06/15 02:47:23;;;;;;;4.73;4.33;;;11.50;1.00;;;;;;5115319;28;20392;-67
2023/06/15 02:49:49;;;;;;;4.40;4.10;;;11.50;1.00;;;;;;5099522;28;20537;-69
2023/06/15 02:52:15;;;;;;;6.63;4.53;;;11.50;1.00;;;;;;5093690;28;20170;-66
2023/06/15 02:54:41;;;;;;;5.17;4.70;;;11.50;1.00;;;;;;5094714;28;20494;-69
2023/06/15 02:57:07;;;;;;;5.60;4.47;;;11.50;1.00;;;;;;5094629;28;20435;-67
2023/06/15 02:59:37;;;;;;;6.00;5.37;;;11.50;1.00;;;;;;5093856;28;20864;-69
2023/06/15 03:02:08;;;;;;;4.70;4.30;;;11.40;1.00;;;;;;5093606;28;20174;-68
2023/06/15 03:04:44;;;;;;;7.37;4.93;;;11.40;1.00;;;;;;5094628;28;20480;-66
2023/06/15 03:07:16;;;;;;;4.40;4.00;;;11.30;1.00;;;;;;5094222;28;20900;-66
2023/06/15 03:09:45;;;;;;;4.37;4.03;;;11.40;1.00;;;;;;5094344;28;20378;-68
2023/06/15 03:12:11;;;;;;;4.67;4.23;;;11.40;1.00;;;;;;5093363;28;20412;-69
2023/06/15 03:14:37;;;;;;;5.10;4.60;;;11.50;1.00;;;;;;5094349;28;20416;-68
2023/06/15 03:17:04;;;;;;;5.13;4.40;;;11.50;1.00;;;;;;5076093;28;20712;-68
2023/06/15 03:19:30;;;;;;;5.80;4.93;;;11.50;1.00;;;;;;5093477;28;20941;-67
2023/06/15 03:21:57;;;;;;;5.10;4.70;;;11.60;1.00;;;;;;5093348;28;20376;-66
2023/06/15 03:24:25;;;;;;;4.53;4.13;;;11.60;1.00;;;;;;5093678;28;20406;-69
2023/06/15 03:26:51;;;;;;;4.87;4.37;;;11.60;1.00;;;;;;5093978;28;20504;-68
2023/06/15 03:29:19;;;;;;;8.73;4.43;;;11.60;1.00;;;;;;5094253;28;20486;-66
2023/06/15 03:31:46;;;;;;;6.47;4.63;;;11.60;1.00;;;;;;5093159;28;20313;-69
2023/06/15 03:34:12;;;;;;;5.87;4.90;;;11.60;1.00;;;;;;5093771;28;20883;-67
2023/06/15 03:36:41;;;;;;;5.93;4.97;;;11.60;1.00;;;;;;5074130;28;20438;-66
2023/06/15 03:39:06;;;;;;;4.63;4.23;;;11.60;1.00;;;;;;5085115;28;20210;-69
2023/06/15 03:41:34;;;;;;;5.33;4.83;;;11.60;1.00;;;;;;5078057;28;20386;-66
2023/06/15 03:44:00;;;;;;;5.20;4.40;;;11.60;1.00;;;;;;5093589;28;20561;-68
2023/06/15 03:46:25;;;;;;;5.20;4.27;;;11.60;1.00;;;;;;5075523;28;20494;-68
2023/06/15 03:48:51;;;;;;;4.57;4.17;;;11.60;1.00;;;;;;5093697;28;20260;-68
2023/06/15 03:51:17;;;;;;;6.00;4.10;;;11.60;1.00;;;;;;5074714;28;20181;-66
2023/06/15 03:53:44;;;;;;;5.90;4.43;;;11.70;1.00;;;;;;5093544;28;20658;-69
2023/06/15 03:56:10;;;;;;;6.07;5.30;;;11.70;1.00;;;;;;5091377;28;20181;-70
2023/06/15 03:58:36;;;;;;;4.77;4.37;;;11.60;1.00;;;;;;5078699;28;20434;-68
2023/06/15 04:01:05;;;;;;;4.40;4.10;;;11.60;1.00;;;;;;5092648;28;20378;-66
2023/06/15 04:03:35;;;;;;;5.20;4.80;;;11.60;1.00;;;;;;5093465;28;20193;-69
2023/06/15 04:06:04;;;;;;;5.27;4.77;;;11.70;1.00;;;;;;5093539;28;20375;-68
2023/06/15 04:08:32;;;;;;;5.70;5.10;;;11.70;1.00;;;;;;5093361;28;20404;-67
2023/06/15 04:10:58;;;;;;;5.37;4.90;;;11.70;1.00;;;;;;5092405;28;20379;-68
2023/06/15 04:13:24;;;;;;;7.33;5.67;;;11.80;1.00;;;;;;5093255;28;20489;-69
2023/06/15 04:15:50;;;;;;;5.93;4.50;;;11.80;1.00;;;;;;5092485;28;20724;-66
2023/06/15 04:18:16;;;;;;;4.93;4.53;;;11.80;1.00;;;;;;5093126;28;20424;-70
2023/06/15 04:20:43;;;;;;;5.00;4.60;;;11.90;1.00;;;;;;5092247;28;20385;-67
2023/06/15 04:23:10;;;;;;;7.67;6.00;;;12.00;1.00;;;;;;5093109;28;20422;-66
2023/06/15 04:25:37;;;;;;;5.10;4.70;;;12.00;1.00;;;;;;5093195;28;20870;-66
2023/06/15 04:28:05;;;;;;;6.40;5.70;;;12.10;1.00;;;;;;5093129;28;20408;-70
2023/06/15 04:30:32;;;;;;;6.00;4.87;;;12.20;1.00;;;;;;5092205;28;20392;-68
2023/06/15 04:32:59;;;;;;;7.30;5.73;;;12.20;1.00;;;;;;5092082;28;20398;-68
2023/06/15 04:35:31;;;;;;;5.87;5.37;;;12.30;1.00;;;;;;5093194;28;20790;-67
2023/06/15 04:38:04;;;;;;;5.93;5.33;;;12.30;1.00;;;;;;5093214;28;20367;-69
2023/06/15 04:40:30;;;;;;;5.70;5.17;;;12.30;1.00;;;;;;5092153;28;20370;-67
2023/06/15 04:42:58;;;;;;;6.70;5.80;;;12.30;1.00;;;;;;5092896;28;20777;-66
2023/06/15 04:45:24;;;;;;;6.37;5.67;;;12.40;1.00;;;;;;5092908;28;20468;-66
2023/06/15 04:47:50;;;;;;;5.60;5.20;;;12.40;1.00;;;;;;5092675;28;20396;-69
2023/06/15 04:50:16;;;;;;;6.53;5.80;;;12.40;1.00;;;;;;5091573;28;20419;-67
2023/06/15 04:52:42;;;;;;;6.83;6.20;;;12.40;1.00;;;;;;5092903;28;20400;-69
2023/06/15 04:55:08;;;;;;;6.53;5.00;;;12.40;1.00;;;;;;5092926;28;20514;-69
2023/06/15 04:57:34;;;;;;;5.67;5.17;;;12.50;1.00;;;;;;5092892;28;20530;-66
2023/06/15 05:00:00;;;;;;;5.00;4.60;;;12.60;1.00;;;;;;5092459;28;20439;-67
2023/06/15 05:02:25;;;;;;;6.97;5.33;;;12.80;1.00;;;;;;5092219;28;20403;-69
2023/06/15 05:04:51;;;;;;;5.43;4.93;;;12.90;1.00;;;;;;5092006;28;20574;-67
2023/06/15 05:07:17;;;;;;;7.73;6.00;;;13.10;1.00;;;;;;5093373;28;20197;-66
2023/06/15 05:09:43;;;;;;;5.07;4.67;;;13.20;1.00;;;;;;5096781;28;20402;-67
2023/06/15 05:12:09;;;;;;;6.30;5.60;;;13.30;10.60;;;;;;5095870;28;20169;-69
2023/06/15 05:14:35;;;;;;;8.70;7.00;;;13.40;18.40;;;;;;5096651;28;20423;-67
2023/06/15 05:17:04;;;;;;;6.20;5.60;;;13.50;26.70;;;;;;5096461;28;20818;-70
2023/06/15 05:19:31;;;;;;;6.10;5.50;;;13.60;35.20;;;;;;5096460;28;20727;-67
2023/06/15 05:22:01;;;;;;;5.90;5.37;;;13.70;46.90;;;;;;5095724;28;20404;-69
2023/06/15 05:24:27;;;;;;;15.33;5.30;;;13.80;58.00;;;;;;5095644;28;20462;-69
2023/06/15 05:26:54;;;;;;;6.23;5.63;;;13.90;63.20;;;;;;5096339;28;20464;-67
2023/06/15 05:29:20;;;;;;;15.33;14.03;;;13.90;71.60;;;;;;5096370;28;20436;-67
2023/06/15 05:31:47;;;;;;;19.03;17.40;;;14.10;80.80;;;;;;5095453;28;20422;-67
2023/06/15 05:34:12;;;;;;;8.57;7.77;;;14.10;91.00;;;;;;5096043;28;20438;-67
2023/06/15 05:36:38;;;;;;;6.53;5.53;;;14.20;93.60;;;;;;5096361;28;20760;-66
2023/06/15 05:39:05;;;;;;;8.43;5.33;;;14.30;93.60;;;;;;5096092;28;20473;-66
2023/06/15 05:41:36;;;;;;;7.43;5.67;;;14.30;93.60;;;;;;5094562;28;20403;-67
2023/06/15 05:46:50;;;;;;;7.43;5.60;;;14.40;93.60;;;;;;5084118;28;20479;-67
2023/06/15 05:49:16;;;;;;;7.00;5.53;;;14.50;93.70;;;;;;5093007;28;20431;-69
2023/06/15 05:51:42;;;;;;;6.07;5.57;;;14.40;93.60;;;;;;5076058;28;20432;-66
2023/06/15 05:54:08;;;;;;;6.00;5.50;;;14.40;93.60;;;;;;5094760;28;20197;-68
2023/06/15 05:56:59;;;;;;;8.40;5.80;;;14.40;99.90;;;;;;5096025;28;20169;-65
2023/06/15 05:59:25;;;;;;;6.93;5.40;;;14.50;99.90;;;;;;5094427;28;20198;-69
2023/06/15 06:01:57;;;;;;;6.17;5.57;;;14.40;99.90;;;;;;5094699;28;20423;-68
2023/06/15 06:04:23;;;;;;;6.43;5.83;;;14.40;99.90;;;;;;5095314;28;20196;-68
2023/06/15 06:06:49;;;;;;;7.30;6.70;;;14.40;99.90;;;;;;5095626;28;20396;-65
2023/06/15 06:09:15;;;;;;;7.80;5.77;;;14.50;99.90;;;;;;5094979;28;20258;-68
2023/06/15 06:11:41;;;;;;;7.67;6.87;;;14.60;99.90;;;;;;5094651;28;20407;-69
2023/06/15 06:14:06;;;;;;;7.10;6.13;;;14.60;99.90;;;;;;5077190;28;20201;-66
2023/06/15 06:16:32;;;;;;;6.93;6.33;;;14.70;99.90;;;;;;5095548;28;20165;-66
2023/06/15 06:18:58;;;;;;;8.20;7.40;;;14.90;99.90;;;;;;5094243;28;20193;-69
2023/06/15 06:21:24;;;;;;;8.10;7.30;;;15.00;99.90;;;;;;5094004;28;20244;-68
2023/06/15 06:23:50;;;;;;;9.57;7.40;;;15.20;99.90;;;;;;5095298;28;20650;-68
2023/06/15 06:26:16;;;;;;;16.20;6.00;;;15.30;99.90;;;;;;5093642;28;20406;-65
2023/06/15 06:28:42;;;;;;;7.30;5.90;;;15.50;99.90;;;;;;5085431;28;20496;-69
2023/06/15 06:31:08;;;;;;;7.07;5.33;;;15.70;99.90;;;;;;5081780;28;20407;-68
2023/06/15 06:33:37;;;;;;;8.73;5.97;;;15.90;99.90;;;;;;5094446;28;20712;-67
2023/06/15 06:36:04;;;;;;;6.13;5.57;;;16.10;99.90;;;;;;5095119;28;20172;-71
2023/06/15 06:38:39;;;;;;;6.27;5.67;;;16.30;99.90;;;;;;5094398;28;20475;-69
2023/06/15 06:41:09;;;;;;;6.33;5.70;;;16.40;99.90;;;;;;5093989;28;20796;-69
2023/06/15 06:43:35;;;;;;;10.13;5.53;;;16.40;99.90;;;;;;5093287;28;20520;-69
2023/06/15 06:46:01;;;;;;;13.43;9.57;;;16.50;99.90;;;;;;5077135;28;20408;-70
2023/06/15 06:48:27;;;;;;;7.73;7.10;;;16.60;99.90;;;;;;5094905;28;20434;-67
2023/06/15 06:50:53;;;;;;;7.60;6.63;;;16.60;99.90;;;;;;5093974;28;20419;-67
2023/06/15 06:53:19;;;;;;;6.60;5.60;;;16.70;99.90;;;;;;5094867;28;20193;-69
2023/06/15 06:55:45;;;;;;;7.30;4.50;;;16.70;99.90;;;;;;5094146;28;20758;-69
2023/06/15 06:58:11;;;;;;;5.67;5.17;;;16.70;99.90;;;;;;5093745;28;20498;-67
2023/06/15 07:00:37;;;;;;;5.80;5.30;;;16.70;99.90;;;;;;5093955;28;20403;-69
2023/06/15 07:03:03;;;;;;;5.27;4.77;;;16.80;99.90;;;;;;5094315;28;20771;-67
2023/06/15 07:05:29;;;;;;;6.23;5.60;;;16.70;99.90;;;;;;5093369;28;20658;-69
2023/06/15 07:07:56;;;;;;;5.33;4.73;;;16.70;99.90;;;;;;5094486;28;20411;-69
2023/06/15 07:10:22;;;;;;;7.37;5.23;;;16.80;99.90;;;;;;5093572;28;20166;-69
2023/06/15 07:12:48;;;;;;;15.13;6.97;;;16.80;99.90;;;;;;5093800;28;20445;-67
2023/06/15 07:15:14;;;;;;;8.23;5.67;;;16.90;99.90;;;;;;5075878;28;20920;-71
2023/06/15 07:18:01;;;;;;;7.30;5.80;;;17.00;99.90;;;;;;5093920;28;20436;-69
2023/06/15 07:20:26;;;;;;;6.80;6.07;;;17.10;99.90;;;;;;5092247;28;20546;-67
2023/06/15 07:22:52;;;;;;;6.30;5.43;;;17.20;94.70;;;;;;5094170;28;20522;-68
2023/06/15 07:25:18;;;;;;;6.70;4.63;;;17.20;94.70;;;;;;5094259;28;20260;-69
2023/06/15 07:27:45;;;;;;;7.00;5.90;;;17.30;88.00;;;;;;5092818;28;20439;-67
2023/06/15 07:30:22;;;;;;;4.33;4.03;;;17.30;84.30;;;;;;5092466;28;20396;-69
2023/06/15 07:32:48;;;;;;;17.10;4.87;;;17.40;73.20;;;;;;5093931;28;20733;-70
2023/06/15 07:35:15;;;;;;;6.30;5.70;;;17.50;73.00;;;;;;5093688;28;20427;-69
2023/06/15 07:37:50;;;;;;;4.40;4.00;;;17.60;69.40;;;;;;5093782;28;20399;-67
2023/06/15 07:40:36;;;;;;;6.77;5.20;;;17.70;50.50;;;;;;5092151;28;20478;-68
2023/06/15 07:43:10;;;;;;;4.90;4.40;;;17.60;9.80;;;;;;5093568;28;20432;-69
2023/06/15 07:45:38;;;;;;;6.47;4.83;;;17.70;1.00;;;;;;5093854;28;20419;-68
2023/06/15 07:48:05;;;;;;;6.20;5.23;;;17.80;1.00;;;;;;5074964;28;20996;-70
2023/06/15 07:50:31;;;;;;;9.13;4.77;;;17.90;1.00;;;;;;5092820;28;20391;-68
2023/06/15 07:53:12;;;;;;;6.00;4.67;;;18.00;1.00;;;;;;5092693;28;20407;-72
2023/06/15 07:55:38;;;;;;;5.50;4.60;;;18.00;1.00;;;;;;5093002;28;20180;-69
2023/06/15 07:58:04;;;;;;;8.63;5.90;;;18.20;1.00;;;;;;5075600;28;20403;-70
2023/06/15 08:00:30;;;;;;;4.80;4.40;;;18.40;1.00;;;;;;5092644;28;20170;-67
2023/06/15 08:02:56;;;;;;;5.93;4.70;;;18.60;1.00;;;;;;5075145;28;20434;-68
2023/06/15 08:05:22;;;;;;;6.43;4.47;;;18.70;1.00;;;;;;5091241;28;20476;-68
2023/06/15 08:07:48;;;;;;;4.60;4.30;;;18.80;1.00;;;;;;5092297;28;20260;-68
2023/06/15 08:10:15;;;;;;;5.20;4.70;;;18.90;1.00;;;;;;5090708;28;20444;-69
2023/06/15 08:12:41;;;;;;;8.80;4.83;;;19.10;1.00;;;;;;5092666;28;20498;-68
2023/06/15 08:15:07;;;;;;;4.43;4.03;;;19.10;1.00;;;;;;5093308;28;20400;-68
2023/06/15 08:17:33;;;;;;;5.37;4.40;;;19.20;1.00;;;;;;5093473;28;20445;-68
2023/06/15 08:20:00;;;;;;;7.93;3.90;;;19.40;1.00;;;;;;5092883;28;20455;-68
2023/06/15 08:22:27;;;;;;;4.67;4.03;;;19.60;1.00;;;;;;5091780;28;20150;-69
2023/06/15 08:25:04;;;;;;;6.30;3.03;;;19.70;1.00;;;;;;5093360;28;20427;-68
2023/06/15 08:27:38;;;;;;;4.83;3.83;;;19.80;1.00;;;;;;5073346;28;20426;-69
2023/06/15 08:30:10;;;;;;;10.37;3.80;;;19.80;1.00;;;;;;5092155;28;20788;-74
2023/06/15 08:32:36;;;;;;;7.70;4.50;;;19.90;1.00;;;;;;5092943;28;20552;-69
2023/06/15 08:35:04;;;;;;;5.97;4.27;;;19.90;1.00;;;;;;5093289;28;20429;-69
2023/06/15 08:37:30;;;;;;;5.47;3.30;;;19.60;1.00;;;;;;5092629;28;20432;-68
2023/06/15 08:40:07;;;;;;;4.30;4.00;;;19.60;1.00;;;;;;5092678;28;20470;-68
2023/06/15 08:42:34;;;;;;;5.43;4.00;;;19.60;1.00;;;;;;5094008;28;20526;-69
2023/06/15 08:45:07;;;;;;;4.17;3.87;;;19.60;99.90;;;;;;5097137;28;20923;-69
2023/06/15 08:47:34;;;;;;;6.57;3.53;;;19.60;99.90;;;;;;5096763;28;20399;-69
2023/06/15 08:50:03;;;;;;;10.53;4.33;;;19.70;99.90;;;;;;5096862;28;20399;-69
2023/06/15 08:52:42;;;;;;;4.00;3.60;;;19.70;99.90;;;;;;5095174;28;20452;-69
2023/06/15 08:55:10;;;;;;;4.80;3.90;;;19.70;99.90;;;;;;5097060;28;20486;-69
2023/06/15 08:57:36;;;;;;;6.90;4.20;;;19.60;99.90;;;;;;5078937;28;20420;-68
2023/06/15 09:00:09;;;;;;;4.63;3.80;;;19.70;99.90;;;;;;5095308;28;20454;-69
2023/06/15 09:02:41;;;;;;;4.07;3.50;;;19.80;99.90;;;;;;5096741;28;20500;-69
2023/06/15 09:05:07;;;;;;;4.27;3.23;;;20.00;99.90;;;;;;5096173;28;20831;-68
2023/06/15 09:07:34;;;;;;;5.47;4.03;;;20.10;99.90;;;;;;5096985;28;20399;-68
2023/06/15 09:10:14;;;;;;;3.23;3.03;;;20.40;99.90;;;;;;5096461;28;20411;-69
2023/06/15 09:12:45;;;;;;;4.17;3.77;;;20.70;99.90;;;;;;5096650;28;20498;-69
2023/06/15 09:18:55;;;;;;;3.20;3.00;;;21.20;99.90;;;;;;4994872;28;20505;-68
2023/06/15 09:21:26;;;;;;;3.70;3.40;;;21.60;99.90;;;;;;4993981;28;20438;-68
2023/06/15 09:26:56;;;;;;;4.03;2.87;;;21.70;99.90;;;;;;4994984;28;20761;-68
2023/06/15 09:29:22;;;;;;;7.30;3.43;;;21.60;99.90;;;;;;4983110;28;20853;-68
2023/06/15 09:31:48;;;;;;;4.50;4.10;;;21.40;99.90;;;;;;4978678;28;20440;-68
2023/06/15 09:34:14;;;;;;;4.50;3.70;;;21.10;99.90;;;;;;5076165;28;20462;-68
2023/06/15 09:36:46;;;;;;;9.93;4.20;;;21.00;99.90;;;;;;5075876;28;20170;-68
2023/06/15 09:39:23;;;;;;;;;;;;;;;;;;;;;
2023/06/15 09:41:56;;;;;;;3.57;3.27;;;20.90;99.90;;;;;;5073895;28;20400;-69
2023/06/15 09:44:26;;;;;;;4.47;4.10;;;20.80;99.90;;;;;;5081084;28;20877;-68
2023/06/15 09:46:53;;;;;;;3.80;3.50;;;20.70;99.90;;;;;;5096076;28;20481;-68
2023/06/15 09:49:43;;;;;;;3.83;3.37;;;20.50;99.90;;;;;;5095935;28;20461;-67
2023/06/15 09:55:37;;;;;;;4.80;4.30;;;20.10;99.90;;;;;;5095777;28;20407;-68
2023/06/15 09:58:04;;;;;;;4.03;3.60;;;19.60;99.90;;;;;;5095674;28;20427;-70
2023/06/15 10:00:57;;;;;;;5.40;4.37;;;19.30;99.90;;;;;;5092647;28;20964;-67
2023/06/15 10:03:31;;;;;;;6.83;4.10;;;19.00;99.90;;;;;;5085372;28;20458;-69
2023/06/15 10:06:08;;;;;;;8.90;4.03;;;18.90;99.90;;;;;;5077448;28;20761;-67
2023/06/15 10:08:38;;;;;;;4.30;3.90;;;18.90;99.90;;;;;;5095721;28;20410;-67
2023/06/15 10:11:07;;;;;;;4.20;3.90;;;19.00;99.90;;;;;;5076906;28;20901;-70
2023/06/15 10:13:39;;;;;;;3.80;3.50;;;19.10;99.90;;;;;;5094729;28;20474;-68
2023/06/15 10:16:08;;;;;;;4.17;3.73;;;19.20;99.90;;;;;;5095539;28;20404;-69
2023/06/15 10:18:36;;;;;;;4.77;4.33;;;19.50;99.90;;;;;;5094876;28;20485;-71
2023/06/15 10:21:04;;;;;;;3.73;3.43;;;19.60;99.90;;;;;;5094580;28;20400;-69
2023/06/15 10:23:32;;;;;;;4.07;3.67;;;19.70;99.90;;;;;;5095329;28;20427;-69
2023/06/15 10:25:58;;;;;;;6.20;4.70;;;20.20;99.90;;;;;;5095352;28;20410;-70
2023/06/15 10:28:32;;;;;;;4.97;4.50;;;21.10;99.90;;;;;;5094119;28;20526;-69
2023/06/15 10:31:12;;;;;;;5.10;4.37;;;21.80;99.90;;;;;;5094425;28;20474;-68
2023/06/15 10:34:07;;;;;;;4.93;4.47;;;22.50;99.90;;;;;;5095126;28;20921;-70
2023/06/15 10:36:50;;;;;;;4.33;3.93;;;22.90;99.90;;;;;;5094513;28;20434;-69
2023/06/15 10:39:31;;;;;;;4.00;3.70;;;23.10;99.90;;;;;;5094322;28;20655;-70
2023/06/15 10:41:58;;;;;;;4.63;4.03;;;23.30;99.90;;;;;;5094036;28;21058;-68
2023/06/15 10:44:31;;;;;;;4.07;3.77;;;23.70;99.90;;;;;;5093184;28;20467;-69
2023/06/15 10:47:29;;;;;;;4.00;3.60;;;23.40;99.90;;;;;;5095016;28;20404;-68
2023/06/15 10:49:55;;;;;;;5.03;4.33;;;23.30;99.90;;;;;;5049852;28;20427;-69
2023/06/15 10:52:21;;;;;;;3.90;3.60;;;23.60;99.90;;;;;;5094293;28;20873;-70
2023/06/15 10:54:48;;;;;;;5.90;3.53;;;23.80;99.90;;;;;;5094159;28;20430;-69
2023/06/15 10:57:25;;;;;;;3.73;3.43;;;23.80;99.90;;;;;;5094750;28;20177;-69
2023/06/15 10:59:56;;;;;;;3.60;3.40;;;24.20;99.90;;;;;;5093513;28;20478;-69
2023/06/15 11:02:28;;;;;;;5.60;4.10;;;24.20;99.90;;;;;;5094006;28;20431;-70
2023/06/15 11:05:17;;;;;;;4.63;4.20;;;24.70;99.90;;;;;;5093806;28;20424;-70
2023/06/15 11:07:47;;;;;;;4.37;3.97;;;25.10;99.90;;;;;;5094466;28;20868;-71
2023/06/15 11:10:15;;;;;;;5.10;4.47;;;25.40;99.90;;;;;;5075498;28;20411;-69
2023/06/15 11:12:43;;;;;;;4.97;3.73;;;25.80;99.90;;;;;;5093138;28;20416;-72
2023/06/15 11:15:14;;;;;;;5.83;4.00;;;26.10;99.90;;;;;;5094188;28;20491;-69
2023/06/15 11:17:55;;;;;;;4.70;4.30;;;26.30;99.90;;;;;;5094392;28;20764;-70
2023/06/15 11:20:39;;;;;;;4.47;4.07;;;26.20;99.90;;;;;;5093392;28;21001;-70
2023/06/15 11:23:14;;;;;;;4.30;3.90;;;26.40;99.90;;;;;;5094222;28;20502;-71
2023/06/15 11:25:47;;;;;;;5.50;4.30;;;26.10;99.90;;;;;;5094254;28;20887;-70
2023/06/15 11:28:21;;;;;;;10.40;4.40;;;26.00;99.90;;;;;;5092314;28;20451;-70
2023/06/15 11:30:50;;;;;;;4.83;3.63;;;26.30;99.90;;;;;;5092829;28;20949;-69
2023/06/15 11:33:32;;;;;;;5.67;4.50;;;26.70;99.90;;;;;;5075683;28;20786;-69
2023/06/15 11:36:06;;;;;;;4.20;3.80;;;26.90;99.90;;;;;;5093860;28;20752;-70
2023/06/15 11:38:33;;;;;;;4.47;4.17;;;27.40;99.90;;;;;;5093897;28;20455;-70
2023/06/15 11:41:00;;;;;;;4.40;4.00;;;27.70;99.90;;;;;;5093088;28;20420;-69
2023/06/15 11:43:31;;;;;;;10.30;5.13;;;27.40;99.90;;;;;;5093028;28;20482;-69
2023/06/15 11:45:57;;;;;;;4.57;4.07;;;27.10;99.90;;;;;;5093036;28;20942;-70
2023/06/15 11:48:24;;;;;;;5.40;4.60;;;27.30;99.90;;;;;;5093431;28;20414;-71
2023/06/15 11:50:50;;;;;;;4.57;4.20;;;27.40;99.90;;;;;;5092683;28;20407;-69
2023/06/15 11:53:19;;;;;;;5.70;4.97;;;27.60;99.90;;;;;;5092820;28;20526;-70
2023/06/15 11:55:45;;;;;;;3.83;3.53;;;27.60;99.90;;;;;;5075806;28;20177;-73
2023/06/15 11:58:12;;;;;;;4.37;3.90;;;27.50;99.90;;;;;;5093604;28;20908;-71
2023/06/15 12:00:39;;;;;;;4.00;3.70;;;27.90;99.90;;;;;;5074534;28;20457;-66
2023/06/15 12:03:12;;;;;;;4.57;3.60;;;28.40;99.90;;;;;;5091755;28;20443;-76
2023/06/15 12:05:39;;;;;;;4.90;4.50;;;29.00;99.90;;;;;;5092848;28;20772;-69
2023/06/15 12:08:06;;;;;;;4.50;3.90;;;29.20;99.90;;;;;;5074793;28;21089;-72
2023/06/15 12:10:37;;;;;;;5.50;3.93;;;29.00;99.90;;;;;;5092436;28;20392;-71
2023/06/15 12:13:03;;;;;;;3.90;3.60;;;28.70;99.90;;;;;;5093249;28;20975;-72
2023/06/15 12:15:29;;;;;;;4.23;3.93;;;28.30;99.90;;;;;;5093362;28;20491;-71
2023/06/15 12:17:56;;;;;;;7.83;5.33;;;28.10;99.90;;;;;;5092347;28;20518;-70
2023/06/15 12:20:27;;;;;;;5.50;4.10;;;28.10;99.90;;;;;;5091507;28;20204;-72
2023/06/15 12:22:53;;;;;;;4.67;4.37;;;28.20;99.90;;;;;;5093142;28;20935;-71
2023/06/15 12:25:38;;;;;;;4.23;3.87;;;28.00;99.90;;;;;;5093208;28;20392;-70
2023/06/15 12:28:20;;;;;;;5.07;4.67;;;27.60;99.90;;;;;;5092597;28;20168;-71
2023/06/15 12:30:47;;;;;;;4.43;4.03;;;27.20;99.90;;;;;;5092372;28;20958;-69
2023/06/15 12:33:34;;;;;;;5.00;4.60;;;26.60;99.90;;;;;;5086918;28;20493;-71
2023/06/15 12:36:06;;;;;;;11.03;4.80;;;26.70;99.90;;;;;;5073540;28;20404;-69
2023/06/15 12:38:32;;;;;;;5.43;5.03;;;26.40;99.90;;;;;;5072549;28;20932;-69
2023/06/15 12:40:59;;;;;;;5.50;5.00;;;25.60;99.90;;;;;;5072140;28;20397;-69
2023/06/15 12:43:25;;;;;;;4.70;4.40;;;25.20;99.90;;;;;;5072108;28;20178;-68
2023/06/15 12:45:53;;;;;;;5.50;4.80;;;24.80;99.90;;;;;;5072877;28;20454;-69
2023/06/15 12:48:19;;;;;;;5.73;5.20;;;24.40;99.90;;;;;;5072812;28;20905;-69
2023/06/15 12:50:45;;;;;;;5.50;4.60;;;24.00;99.90;;;;;;5085472;28;20423;-72
2023/06/15 12:53:11;;;;;;;8.57;4.53;;;23.50;99.90;;;;;;5092107;28;20439;-69
2023/06/15 12:55:36;;;;;;;5.00;4.60;;;23.20;99.90;;;;;;5075137;28;20422;-69
2023/06/15 12:58:03;;;;;;;5.27;4.77;;;23.10;99.90;;;;;;5092738;28;20168;-69
2023/06/15 13:00:29;;;;;;;5.23;4.10;;;23.30;99.90;;;;;;5072497;28;20612;-70
2023/06/15 13:02:57;;;;;;;4.37;3.97;;;23.40;99.90;;;;;;5092441;28;20424;-69
2023/06/15 13:05:23;;;;;;;4.73;4.23;;;23.50;99.90;;;;;;5092833;28;20404;-70
2023/06/15 13:07:49;;;;;;;5.60;5.10;;;23.80;99.90;;;;;;5092877;28;20456;-70
2023/06/15 13:10:16;;;;;;;5.10;4.70;;;24.10;99.90;;;;;;5091126;28;20568;-70
2023/06/15 13:12:43;;;;;;;5.00;4.40;;;24.30;99.90;;;;;;5092591;28;20408;-70
2023/06/15 13:15:09;;;;;;;6.83;4.53;;;24.80;99.90;;;;;;5092616;28;20403;-70